Time;durP1;ratioP1;P1;durP2;ratioP2;P2;SDS_P1;SDS_P2;PMS_P1;PMS_P2;Temp;Humidity;BMP_temperature;BMP_pressure;BME280_temperature;BME280_humidity;BME280_pressure;Samples;Min_cycle;Max_cycle;Signal;HPM_P1;HPM_P2
2023/10/10 00:01:04;;;;;;;2.92;2.30;;;;;;;;;;6283523;22;20326;-80
2023/10/10 00:03:31;;;;;;;6.28;2.42;;;;;;;;;;6283991;22;20467;-80
2023/10/10 00:06:06;;;;;;;4.05;2.10;;;;;;;;;;6283637;22;20086;-80
2023/10/10 00:08:36;;;;;;;5.60;2.42;;;;;;;;;;6310802;22;20019;-80
2023/10/10 00:11:14;;;;;;;3.75;2.92;;;;;;;;;;6311914;22;20038;-80
2023/10/10 00:13:46;;;;;;;5.35;2.15;;;;;;;;;;6311438;22;20062;-80
2023/10/10 00:16:35;;;;;;;4.18;2.50;;;;;;;;;;6283141;22;20011;-80
2023/10/10 00:21:54;;;;;;;4.57;2.25;;;;;;;;;;6311288;22;20019;-80
2023/10/10 00:24:23;;;;;;;4.38;2.97;;;;;;;;;;6283017;22;20015;-80
2023/10/10 00:26:49;;;;;;;5.07;2.63;;;;;;;;;;6283273;22;20018;-80
2023/10/10 00:29:23;;;;;;;4.40;2.60;;;;;;;;;;6282837;22;20015;-80
2023/10/10 00:32:04;;;;;;;2.95;2.53;;;;;;;;;;6284959;22;20011;-80
2023/10/10 00:34:33;;;;;;;3.80;2.60;;;;;;;;;;6311600;22;20019;-80
2023/10/10 00:37:07;;;;;;;4.80;2.55;;;;;;;;;;6282360;22;20015;-80
2023/10/10 00:39:35;;;;;;;5.25;2.78;;;;;;;;;;6310324;22;20015;-80
2023/10/10 00:42:05;;;;;;;4.97;2.53;;;;;;;;;;6282700;22;20015;-80
2023/10/10 00:44:33;;;;;;;5.43;2.70;;;;;;;;;;6282866;22;20072;-79
2023/10/10 00:47:03;;;;;;;5.47;2.47;;;;;;;;;;6305591;22;20015;-78
2023/10/10 00:49:31;;;;;;;6.05;2.80;;;;;;;;;;6278741;22;20012;-78
2023/10/10 00:52:13;;;;;;;5.13;2.90;;;;;;;;;;6278225;22;20015;-78
2023/10/10 00:54:43;;;;;;;4.60;2.47;;;;;;;;;;6279186;22;20348;-78
2023/10/10 00:57:17;;;;;;;3.30;2.35;;;;;;;;;;6305591;22;20016;-78
2023/10/10 00:59:44;;;;;;;4.95;2.47;;;;;;;;;;6306181;22;20016;-79
2023/10/10 01:02:11;;;;;;;6.90;2.38;;;;;;;;;;6282551;22;20043;-80
2023/10/10 01:04:39;;;;;;;5.25;2.55;;;;;;;;;;6311250;22;20472;-80
2023/10/10 01:07:09;;;;;;;3.78;2.35;;;;;;;;;;6282366;22;20019;-80
2023/10/10 01:09:41;;;;;;;6.07;2.45;;;;;;;;;;6311063;22;20065;-80
2023/10/10 01:12:09;;;;;;;3.67;2.58;;;;;;;;;;6310766;22;20011;-80
2023/10/10 01:14:38;;;;;;;4.25;2.50;;;;;;;;;;6310322;22;20042;-80
2023/10/10 01:17:05;;;;;;;4.43;2.47;;;;;;;;;;6311025;22;20083;-80
2023/10/10 01:19:34;;;;;;;3.47;1.90;;;;;;;;;;6311647;22;20007;-80
2023/10/10 01:22:03;;;;;;;5.07;2.47;;;;;;;;;;6310521;22;20010;-80
2023/10/10 01:24:31;;;;;;;3.10;2.00;;;;;;;;;;6310149;22;20492;-80
2023/10/10 01:27:05;;;;;;;3.20;2.30;;;;;;;;;;6311024;22;20067;-80
2023/10/10 01:29:40;;;;;;;5.47;2.00;;;;;;;;;;6311296;22;20498;-80
2023/10/10 01:32:10;;;;;;;4.28;2.20;;;;;;;;;;6310741;22;20069;-80
2023/10/10 01:34:43;;;;;;;2.42;1.90;;;;;;;;;;6282907;22;20054;-80
2023/10/10 01:37:22;;;;;;;4.15;2.75;;;;;;;;;;6310892;22;20026;-80
2023/10/10 01:39:54;;;;;;;2.63;2.13;;;;;;;;;;6312123;22;20018;-80
2023/10/10 01:42:37;;;;;;;7.45;3.17;;;;;;;;;;6282699;22;20015;-80
2023/10/10 01:45:07;;;;;;;6.43;2.58;;;;;;;;;;6284211;22;20526;-80
2023/10/10 01:47:34;;;;;;;3.95;2.08;;;;;;;;;;6282818;22;20522;-80
2023/10/10 01:50:07;;;;;;;4.05;2.58;;;;;;;;;;6281837;22;20436;-80
2023/10/10 01:52:34;;;;;;;3.38;2.38;;;;;;;;;;6310892;22;20329;-80
2023/10/10 01:55:00;;;;;;;5.72;2.80;;;;;;;;;;6309932;22;20059;-80
2023/10/10 01:57:26;;;;;;;6.18;2.58;;;;;;;;;;6310774;22;20033;-80
2023/10/10 01:59:53;;;;;;;6.13;2.90;;;;;;;;;;6282253;22;20475;-80
2023/10/10 02:02:24;;;;;;;4.03;2.65;;;;;;;;;;6281985;22;20023;-80
2023/10/10 02:04:53;;;;;;;4.13;2.47;;;;;;;;;;6282626;22;20016;-80
2023/10/10 02:07:23;;;;;;;4.60;2.65;;;;;;;;;;6283050;22;20472;-80
2023/10/10 02:09:59;;;;;;;4.03;2.72;;;;;;;;;;6256433;22;20011;-80
2023/10/10 02:12:26;;;;;;;5.03;2.63;;;;;;;;;;6282783;22;20042;-80
2023/10/10 02:14:54;;;;;;;4.50;2.72;;;;;;;;;;6282744;22;20019;-80
2023/10/10 02:17:26;;;;;;;3.22;2.67;;;;;;;;;;6309141;22;20018;-80
2023/10/10 02:22:54;;;;;;;4.30;2.88;;;;;;;;;;6310275;22;20015;-80
2023/10/10 02:27:55;;;;;;;4.25;2.78;;;;;;;;;;6310774;22;20022;-80
2023/10/10 02:30:40;;;;;;;3.13;2.40;;;;;;;;;;6311037;22;20427;-80
2023/10/10 02:35:58;;;;;;;5.13;2.70;;;;;;;;;;6283247;22;20026;-80
2023/10/10 02:38:31;;;;;;;3.80;2.63;;;;;;;;;;6311255;22;20037;-80
2023/10/10 02:41:14;;;;;;;5.15;3.05;;;;;;;;;;6282774;22;20087;-80
2023/10/10 02:43:46;;;;;;;4.88;3.15;;;;;;;;;;6311264;22;20441;-80
2023/10/10 02:46:18;;;;;;;3.58;3.05;;;;;;;;;;6307339;22;20045;-78
2023/10/10 02:48:45;;;;;;;3.45;2.72;;;;;;;;;;6305385;22;20348;-78
2023/10/10 02:51:15;;;;;;;4.63;3.22;;;;;;;;;;6277526;22;20076;-78
2023/10/10 02:53:46;;;;;;;3.80;2.42;;;;;;;;;;6278114;22;20039;-78
2023/10/10 02:56:18;;;;;;;5.20;2.55;;;;;;;;;;6277546;22;20039;-78
2023/10/10 02:58:48;;;;;;;3.72;3.00;;;;;;;;;;6282253;22;20022;-80
2023/10/10 03:03:59;;;;;;;4.75;2.60;;;;;;;;;;6308564;22;20047;-80
2023/10/10 03:06:28;;;;;;;5.55;2.70;;;;;;;;;;6281381;22;20019;-80
2023/10/10 03:09:07;;;;;;;7.53;3.30;;;;;;;;;;6310209;22;20055;-80
2023/10/10 03:11:40;;;;;;;4.90;2.90;;;;;;;;;;6310595;22;20018;-80
2023/10/10 03:14:19;;;;;;;3.13;2.55;;;;;;;;;;6309536;22;20078;-80
2023/10/10 03:16:59;;;;;;;4.07;2.47;;;;;;;;;;6309612;22;20011;-80
2023/10/10 03:19:28;;;;;;;3.33;2.15;;;;;;;;;;6308651;22;20069;-80
2023/10/10 03:27:49;;;;;;;3.47;2.83;;;;;;;;;;6309707;22;20050;-80
2023/10/10 03:33:09;;;;;;;4.07;2.28;;;;;;;;;;6260297;22;20043;-80
2023/10/10 03:35:59;;;;;;;5.40;2.42;;;;;;;;;;6309835;22;20444;-80
2023/10/10 03:38:57;;;;;;;4.88;3.17;;;;;;;;;;6309153;22;20016;-80
2023/10/10 05:25:52;;;;;;;9.73;6.35;;;;;;;;;;6302739;22;20023;-79
2023/10/10 05:28:20;;;;;;;9.45;5.40;;;;;;;;;;6302448;22;20018;-78
2023/10/10 05:30:46;;;;;;;11.27;6.35;;;;;;;;;;6306392;22;20018;-81
2023/10/10 05:33:13;;;;;;;10.88;6.07;;;;;;;;;;6305026;22;20019;-79
2023/10/10 05:35:43;;;;;;;8.88;5.40;;;;;;;;;;6307695;22;20102;-78
2023/10/10 05:38:10;;;;;;;10.18;6.40;;;;;;;;;;6306165;22;20082;-78
2023/10/10 05:40:39;;;;;;;10.10;5.78;;;;;;;;;;6278611;22;20011;-78
2023/10/10 05:43:09;;;;;;;10.45;5.93;;;;;;;;;;6304710;22;20045;-78
2023/10/10 05:45:35;;;;;;;;;;;;;;;;;;6305845;22;20449;-79
2023/10/10 05:48:01;;;;;;;9.90;6.50;;;;;;;;;;6305301;22;19922;-79
2023/10/10 05:50:29;;;;;;;9.43;5.80;;;;;;;;;;6308340;22;20020;-79
2023/10/10 05:52:55;;;;;;;10.43;6.47;;;;;;;;;;6308923;22;20015;-79
2023/10/10 05:55:21;;;;;;;10.40;6.53;;;;;;;;;;6309321;22;20058;-79
2023/10/10 05:57:47;;;;;;;10.90;6.78;;;;;;;;;;6310465;22;20016;-79
2023/10/10 06:00:13;;;;;;;11.52;7.25;;;;;;;;;;6280764;22;20019;-79
2023/10/10 06:02:47;;;;;;;11.48;6.40;;;;;;;;;;6280500;22;20324;-79
2023/10/10 06:05:17;;;;;;;9.85;6.43;;;;;;;;;;6306914;22;20015;-79
2023/10/10 06:07:43;;;;;;;11.45;6.80;;;;;;;;;;6281714;22;20019;-79
2023/10/10 06:10:16;;;;;;;10.95;7.20;;;;;;;;;;6280946;22;20076;-79
2023/10/10 06:12:46;;;;;;;12.02;7.15;;;;;;;;;;6310598;22;20011;-80
2023/10/10 06:15:12;;;;;;;12.77;7.13;;;;;;;;;;6281313;22;20020;-79
2023/10/10 06:17:39;;;;;;;10.55;7.00;;;;;;;;;;6257305;22;20023;-79
2023/10/10 06:20:16;;;;;;;12.68;6.90;;;;;;;;;;6309439;22;20018;-80
2023/10/10 06:22:45;;;;;;;10.88;7.15;;;;;;;;;;6308385;22;20015;-79
2023/10/10 06:25:11;;;;;;;15.95;7.80;;;;;;;;;;6307541;22;20019;-79
2023/10/10 06:27:40;;;;;;;12.00;7.25;;;;;;;;;;6306426;22;20054;-79
2023/10/10 06:30:17;;;;;;;13.15;7.40;;;;;;;;;;6277241;22;20026;-79
2023/10/10 06:32:43;;;;;;;13.43;6.97;;;;;;;;;;6280230;22;20015;-79
2023/10/10 06:37:45;;;;;;;14.52;7.65;;;;;;;;;;6311936;22;20042;-80
2023/10/10 06:40:13;;;;;;;14.25;7.75;;;;;;;;;;6306309;22;20026;-80
2023/10/10 06:42:46;;;;;;;12.85;7.78;;;;;;;;;;6282964;22;20008;-79
2023/10/10 06:45:21;;;;;;;12.02;7.72;;;;;;;;;;6282021;22;20019;-80
2023/10/10 06:47:50;;;;;;;15.85;8.32;;;;;;;;;;6281696;22;20067;-79
2023/10/10 06:50:21;;;;;;;11.20;7.28;;;;;;;;;;6284425;22;20019;-82
2023/10/10 06:52:55;;;;;;;14.93;8.10;;;;;;;;;;6284732;22;20019;-81
2023/10/10 06:55:22;;;;;;;14.48;7.93;;;;;;;;;;6284069;22;20026;-81
2023/10/10 06:57:57;;;;;;;15.68;8.95;;;;;;;;;;6312165;22;20015;-81
2023/10/10 07:03:09;;;;;;;14.25;8.15;;;;;;;;;;6312351;22;20023;-81
2023/10/10 07:05:39;;;;;;;15.20;8.82;;;;;;;;;;6313008;22;20011;-82
2023/10/10 07:11:01;;;;;;;15.77;9.27;;;;;;;;;;6290022;22;20049;-80
2023/10/10 07:13:31;;;;;;;15.75;9.52;;;;;;;;;;6310834;22;20385;-80
2023/10/10 07:15:57;;;;;;;17.20;10.30;;;;;;;;;;6309895;22;20321;-80
2023/10/10 07:18:24;;;;;;;13.43;9.20;;;;;;;;;;6283141;22;20046;-80
2023/10/10 07:21:17;;;;;;;16.10;8.60;;;;;;;;;;6308719;22;20015;-79
2023/10/10 07:26:30;;;;;;;20.80;11.35;;;;;;;;;;6309814;22;20023;-79
2023/10/10 07:28:57;;;;;;;17.42;9.55;;;;;;;;;;6282297;22;20038;-79
2023/10/10 07:31:34;;;;;;;19.13;10.60;;;;;;;;;;6309979;22;20341;-80
2023/10/10 07:34:15;;;;;;;22.42;11.73;;;;;;;;;;6282341;22;20015;-80
2023/10/10 07:36:43;;;;;;;17.15;10.18;;;;;;;;;;6310117;22;20030;-80
2023/10/10 07:41:57;;;;;;;20.20;11.38;;;;;;;;;;6308286;22;20015;-80
2023/10/10 07:44:23;;;;;;;25.00;11.20;;;;;;;;;;6282816;22;20019;-81
2023/10/10 07:47:19;;;;;;;21.45;11.95;;;;;;;;;;6309621;22;20025;-80
2023/10/10 07:49:50;;;;;;;22.30;11.85;;;;;;;;;;6310230;22;20026;-80
2023/10/10 07:52:20;;;;;;;24.55;13.00;;;;;;;;;;6310489;22;20019;-80
2023/10/10 07:54:46;;;;;;;24.15;13.05;;;;;;;;;;6286047;22;20475;-80
2023/10/10 07:57:22;;;;;;;24.42;13.15;;;;;;;;;;6312543;22;20494;-80
2023/10/10 07:59:49;;;;;;;29.95;15.25;;;;;;;;;;6313031;22;20015;-81
2023/10/10 08:02:34;;;;;;;28.45;14.25;;;;;;;;;;6310902;22;20076;-81
2023/10/10 08:05:09;;;;;;;30.10;16.42;;;;;;;;;;6313403;22;20011;-80
2023/10/10 08:07:35;;;;;;;28.65;15.25;;;;;;;;;;6313011;22;20011;-81
2023/10/10 08:10:13;;;;;;;32.88;16.00;;;;;;;;;;6285203;22;20022;-81
2023/10/10 08:12:39;;;;;;;34.58;16.30;;;;;;;;;;6314577;22;20059;-81
2023/10/10 08:15:19;;;;;;;33.95;16.75;;;;;;;;;;6313021;22;20064;-80
2023/10/10 08:17:52;;;;;;;32.85;16.73;;;;;;;;;;6311837;22;20020;-80
2023/10/10 08:21:08;;;;;;;32.42;14.95;;;;;;;;;;6311139;22;20011;-80
2023/10/10 08:23:24;;;;;;;30.63;16.48;;;;;;;;;;6312330;22;20015;-80
2023/10/10 08:25:50;;;;;;;32.67;17.88;;;;;;;;;;6312671;22;20015;-80
2023/10/10 08:28:16;;;;;;;32.53;16.73;;;;;;;;;;6311409;22;20502;-80
2023/10/10 08:30:42;;;;;;;38.03;17.85;;;;;;;;;;6313350;22;20015;-80
2023/10/10 08:33:08;;;;;;;38.33;20.40;;;;;;;;;;6311704;22;20042;-80
2023/10/10 08:35:38;;;;;;;37.20;18.77;;;;;;;;;;6312228;22;20015;-80
2023/10/10 08:38:05;;;;;;;35.88;18.17;;;;;;;;;;6284125;22;20464;-80
2023/10/10 08:40:35;;;;;;;36.08;17.77;;;;;;;;;;6284112;22;20068;-80
2023/10/10 08:43:03;;;;;;;31.02;17.20;;;;;;;;;;6283144;22;20445;-84
2023/10/10 08:45:39;;;;;;;42.35;20.67;;;;;;;;;;6284027;22;20020;-81
2023/10/10 08:48:12;;;;;;;38.85;19.48;;;;;;;;;;6285029;22;20022;-81
2023/10/10 08:50:40;;;;;;;40.25;20.23;;;;;;;;;;6284794;22;20008;-80
2023/10/10 08:53:10;;;;;;;45.65;20.20;;;;;;;;;;6310358;22;20011;-80
2023/10/10 08:55:38;;;;;;;40.22;19.77;;;;;;;;;;6311716;22;20011;-80
2023/10/10 08:58:07;;;;;;;43.78;20.40;;;;;;;;;;6283551;22;20022;-80
2023/10/10 09:00:33;;;;;;;38.67;18.50;;;;;;;;;;6312601;22;20081;-80
2023/10/10 09:02:59;;;;;;;39.33;19.85;;;;;;;;;;6309759;22;20019;-80
2023/10/10 09:05:29;;;;;;;36.88;20.25;;;;;;;;;;6311691;22;20035;-80
2023/10/10 09:08:07;;;;;;;45.63;22.48;;;;;;;;;;6284519;22;20019;-81
2023/10/10 09:10:41;;;;;;;36.50;19.80;;;;;;;;;;6284219;22;20011;-81
2023/10/10 09:13:09;;;;;;;43.33;22.67;;;;;;;;;;6284982;22;20011;-81
2023/10/10 09:15:36;;;;;;;35.95;19.27;;;;;;;;;;6284889;22;20019;-81
2023/10/10 09:18:17;;;;;;;38.38;18.98;;;;;;;;;;6283588;22;20065;-81
2023/10/10 09:20:46;;;;;;;43.95;21.50;;;;;;;;;;6311429;22;20019;-81
2023/10/10 09:23:25;;;;;;;38.92;21.17;;;;;;;;;;6311887;22;20035;-81
2023/10/10 09:26:09;;;;;;;42.17;23.42;;;;;;;;;;6311760;22;20008;-81
2023/10/10 09:28:58;;;;;;;40.78;20.90;;;;;;;;;;6312074;22;20078;-81
2023/10/10 09:31:31;;;;;;;38.60;21.30;;;;;;;;;;6312667;22;20015;-81
2023/10/10 09:33:57;;;;;;;44.63;24.27;;;;;;;;;;6284625;22;20026;-81
2023/10/10 09:36:27;;;;;;;44.22;22.48;;;;;;;;;;6284289;22;20513;-81
2023/10/10 09:39:11;;;;;;;39.55;22.83;;;;;;;;;;6283030;22;20029;-80
2023/10/10 09:42:00;;;;;;;38.17;19.77;;;;;;;;;;6282691;22;20072;-80
2023/10/10 09:55:38;;;;;;;36.00;19.08;;;;;;;;;;6311668;22;20015;-82
2023/10/10 09:58:01;;;;;;;36.00;20.08;;;;;;;;;;6308821;22;20026;-84
2023/10/10 10:03:31;;;;;;;;;;;;;;;;;;6311062;22;20015;-83
2023/10/10 10:05:58;;;;;;;;;;;;;;;;;;6283348;22;19959;-84
2023/10/10 10:08:24;;;;;;;27.02;15.90;;;;;;;;;;6282762;22;19915;-84
2023/10/10 10:11:11;;;;;;;29.77;15.77;;;;;;;;;;6258156;22;20064;-84
2023/10/10 10:13:49;;;;;;;30.13;15.40;;;;;;;;;;6308949;22;20011;-83
2023/10/10 10:16:20;;;;;;;29.42;16.77;;;;;;;;;;6282061;22;20026;-84
2023/10/10 10:18:52;;;;;;;34.78;16.55;;;;;;;;;;6284958;22;20073;-84
2023/10/10 10:21:20;;;;;;;24.25;15.55;;;;;;;;;;6284294;22;20015;-85
2023/10/10 10:23:56;;;;;;;31.63;16.80;;;;;;;;;;6260544;22;20022;-82
2023/10/10 10:26:35;;;;;;;25.42;14.75;;;;;;;;;;6283310;22;20019;-82
2023/10/10 10:29:16;;;;;;;28.70;15.10;;;;;;;;;;6313356;22;20015;-82
2023/10/10 10:31:50;;;;;;;26.48;13.50;;;;;;;;;;6310708;22;20018;-83
2023/10/10 10:34:32;;;;;;;24.30;13.77;;;;;;;;;;6254758;22;20022;-83
2023/10/10 10:37:19;;;;;;;25.52;13.88;;;;;;;;;;6285678;22;20334;-82
2023/10/10 10:42:34;;;;;;;30.20;17.27;;;;;;;;;;6312367;22;20019;-80
2023/10/10 10:45:23;;;;;;;26.95;15.57;;;;;;;;;;6312138;22;20441;-80
2023/10/10 10:48:01;;;;;;;24.88;14.40;;;;;;;;;;6312891;22;20009;-81
2023/10/10 10:50:30;;;;;;;23.85;14.48;;;;;;;;;;6285541;22;20023;-81
2023/10/10 10:52:59;;;;;;;28.30;15.57;;;;;;;;;;6284507;22;20015;-80
2023/10/10 10:55:29;;;;;;;23.55;13.07;;;;;;;;;;6284886;22;20018;-80
2023/10/10 10:58:06;;;;;;;22.65;13.82;;;;;;;;;;6284176;22;20094;-80
2023/10/10 11:01:00;;;;;;;22.88;12.93;;;;;;;;;;6283066;22;20064;-80
2023/10/10 11:03:35;;;;;;;19.90;12.32;;;;;;;;;;6257587;22;20082;-81
2023/10/10 11:06:20;;;;;;;22.10;14.25;;;;;;;;;;6283752;22;20072;-80
2023/10/10 11:11:28;;;;;;;22.35;12.15;;;;;;;;;;6310215;22;20497;-80
2023/10/10 11:14:00;;;;;;;26.63;12.80;;;;;;;;;;6311361;22;20011;-80
2023/10/10 11:16:39;;;;;;;19.85;12.35;;;;;;;;;;6311449;22;20015;-81
2023/10/10 11:21:50;;;;;;;20.25;12.25;;;;;;;;;;6310777;22;20019;-81
2023/10/10 11:24:26;;;;;;;20.92;12.32;;;;;;;;;;6310900;22;20015;-81
2023/10/10 11:27:43;;;;;;;20.65;11.63;;;;;;;;;;6310969;22;20011;-81
2023/10/10 11:29:45;;;;;;;22.75;11.90;;;;;;;;;;6271730;22;20054;-81
2023/10/10 11:32:24;;;;;;;21.63;12.55;;;;;;;;;;6283693;22;20015;-81
2023/10/10 11:34:51;;;;;;;20.60;11.15;;;;;;;;;;6283166;22;20026;-81
2023/10/10 11:37:31;;;;;;;21.27;12.00;;;;;;;;;;6312015;22;20027;-81
2023/10/10 11:40:19;;;;;;;17.73;11.38;;;;;;;;;;6310369;22;20049;-81
2023/10/10 11:42:49;;;;;;;18.42;10.45;;;;;;;;;;6312694;22;20045;-81
2023/10/10 11:45:17;;;;;;;19.73;11.90;;;;;;;;;;6283229;22;20023;-81
2023/10/10 11:47:44;;;;;;;18.85;11.75;;;;;;;;;;6312374;22;20016;-81
2023/10/10 11:50:15;;;;;;;20.67;11.30;;;;;;;;;;6283227;22;20352;-81
2023/10/10 11:52:57;;;;;;;17.67;10.95;;;;;;;;;;6312390;22;20015;-81
2023/10/10 11:55:23;;;;;;;22.17;11.27;;;;;;;;;;6311178;22;20011;-80
2023/10/10 11:57:57;;;;;;;18.73;10.55;;;;;;;;;;6311542;22;20011;-81
2023/10/10 12:00:30;;;;;;;18.23;9.88;;;;;;;;;;6283137;22;20011;-81
2023/10/10 12:02:57;;;;;;;16.88;10.13;;;;;;;;;;6311020;22;20015;-81
2023/10/10 12:07:58;;;;;;;18.20;10.63;;;;;;;;;;6283884;22;20051;-81
2023/10/10 12:10:31;;;;;;;16.38;10.93;;;;;;;;;;6311455;22;20050;-81
2023/10/10 12:13:12;;;;;;;14.73;9.63;;;;;;;;;;6310739;22;20466;-81
2023/10/10 12:15:40;;;;;;;18.00;10.18;;;;;;;;;;6284209;22;20043;-81
2023/10/10 12:18:09;;;;;;;18.73;10.45;;;;;;;;;;6281728;22;20037;-81
2023/10/10 12:20:36;;;;;;;21.05;10.32;;;;;;;;;;6310571;22;20011;-81
2023/10/10 12:23:03;;;;;;;17.70;10.30;;;;;;;;;;6311056;22;20016;-81
2023/10/10 12:25:32;;;;;;;17.45;11.20;;;;;;;;;;6309596;22;20011;-81
2023/10/10 12:28:00;;;;;;;16.85;10.05;;;;;;;;;;6310060;22;20399;-81
2023/10/10 12:30:26;;;;;;;17.67;10.20;;;;;;;;;;6283568;22;20352;-81
2023/10/10 12:32:53;;;;;;;15.30;9.75;;;;;;;;;;6283641;22;20019;-81
2023/10/10 12:35:23;;;;;;;16.95;8.82;;;;;;;;;;6283488;22;20022;-81
2023/10/10 12:37:49;;;;;;;19.23;9.55;;;;;;;;;;6285392;22;20034;-81
2023/10/10 12:40:16;;;;;;;15.10;8.70;;;;;;;;;;6285514;22;20015;-81
2023/10/10 12:42:42;;;;;;;12.75;7.93;;;;;;;;;;6313571;22;20011;-81
2023/10/10 12:45:08;;;;;;;15.70;9.07;;;;;;;;;;6284373;22;20018;-81
2023/10/10 12:47:34;;;;;;;14.98;9.45;;;;;;;;;;6285582;22;20023;-81
2023/10/10 12:50:00;;;;;;;16.73;8.73;;;;;;;;;;6285018;22;20080;-81
2023/10/10 12:52:35;;;;;;;13.68;8.73;;;;;;;;;;6286631;22;20015;-81
2023/10/10 12:55:09;;;;;;;13.48;9.20;;;;;;;;;;6313212;22;20317;-81
2023/10/10 12:57:39;;;;;;;14.02;8.57;;;;;;;;;;6312499;22;20140;-81
2023/10/10 13:00:24;;;;;;;15.70;9.48;;;;;;;;;;6312540;22;20339;-81
2023/10/10 13:02:50;;;;;;;14.45;7.78;;;;;;;;;;6313179;22;20011;-81
2023/10/10 13:05:16;;;;;;;14.70;8.50;;;;;;;;;;6312700;22;20344;-81
2023/10/10 13:07:43;;;;;;;14.63;8.43;;;;;;;;;;6313453;22;20110;-81
2023/10/10 13:10:10;;;;;;;14.82;8.35;;;;;;;;;;6311924;22;20051;-81
2023/10/10 13:12:45;;;;;;;15.57;9.50;;;;;;;;;;6312153;22;20018;-81
2023/10/10 13:15:27;;;;;;;17.55;9.70;;;;;;;;;;6311899;22;20082;-81
2023/10/10 13:17:54;;;;;;;17.65;10.52;;;;;;;;;;6286139;22;20011;-81
2023/10/10 13:20:21;;;;;;;17.02;10.98;;;;;;;;;;6284757;22;20018;-81
2023/10/10 13:22:50;;;;;;;18.77;10.85;;;;;;;;;;6285763;22;20011;-81
2023/10/10 13:25:17;;;;;;;19.60;10.25;;;;;;;;;;6284396;22;20011;-81
2023/10/10 13:27:52;;;;;;;18.23;10.25;;;;;;;;;;6285519;22;20023;-81
2023/10/10 13:30:18;;;;;;;16.98;9.82;;;;;;;;;;6285296;22;20402;-81
2023/10/10 13:32:45;;;;;;;17.80;9.85;;;;;;;;;;6260170;22;20020;-81
2023/10/10 13:35:14;;;;;;;;;;;;;;;;;;6312395;22;20019;-81
2023/10/10 13:37:43;;;;;;;12.75;8.13;;;;;;;;;;6311963;22;19947;-81
2023/10/10 13:40:20;;;;;;;12.98;8.43;;;;;;;;;;6310954;22;20246;-81
2023/10/10 13:42:46;;;;;;;15.55;8.05;;;;;;;;;;6259892;22;20036;-81
2023/10/10 13:45:18;;;;;;;14.07;8.57;;;;;;;;;;6283936;22;20050;-81
2023/10/10 13:47:48;;;;;;;12.38;7.85;;;;;;;;;;6286411;22;20026;-81
2023/10/10 13:50:31;;;;;;;13.52;7.90;;;;;;;;;;6283834;22;20888;-80
2023/10/10 13:52:59;;;;;;;15.52;8.00;;;;;;;;;;6285124;22;20021;-80
2023/10/10 13:55:29;;;;;;;13.45;7.55;;;;;;;;;;6283739;22;20060;-80
2023/10/10 13:57:55;;;;;;;12.52;7.88;;;;;;;;;;6284148;22;20018;-80
2023/10/10 14:00:33;;;;;;;11.55;7.25;;;;;;;;;;6285018;22;20015;-81
2023/10/10 14:03:05;;;;;;;11.88;7.75;;;;;;;;;;6283142;22;20446;-81
2023/10/10 14:05:41;;;;;;;12.52;7.28;;;;;;;;;;6284621;22;20015;-80
2023/10/10 14:08:09;;;;;;;11.10;7.25;;;;;;;;;;6312981;22;20092;-80
2023/10/10 14:10:36;;;;;;;12.23;7.55;;;;;;;;;;6312833;22;20038;-80
2023/10/10 14:13:18;;;;;;;13.82;7.90;;;;;;;;;;6284880;22;20021;-80
2023/10/10 14:15:54;;;;;;;11.82;6.97;;;;;;;;;;6285599;22;20112;-81
2023/10/10 14:18:20;;;;;;;12.02;7.22;;;;;;;;;;6284386;22;20022;-81
2023/10/10 14:20:48;;;;;;;9.73;6.70;;;;;;;;;;6284172;22;20019;-81
2023/10/10 14:23:14;;;;;;;12.70;7.05;;;;;;;;;;6283464;22;20486;-81
2023/10/10 14:25:45;;;;;;;11.48;7.85;;;;;;;;;;6285541;22;20035;-81
2023/10/10 14:28:16;;;;;;;11.27;7.28;;;;;;;;;;6284439;22;20372;-81
2023/10/10 14:30:42;;;;;;;10.98;7.40;;;;;;;;;;6312315;22;20033;-81
2023/10/10 14:33:08;;;;;;;14.68;7.90;;;;;;;;;;6311854;22;20019;-80
2023/10/10 14:35:35;;;;;;;12.35;7.40;;;;;;;;;;6311866;22;20015;-80
2023/10/10 14:38:01;;;;;;;10.65;7.57;;;;;;;;;;6283792;22;20011;-80
2023/10/10 14:40:28;;;;;;;13.90;7.38;;;;;;;;;;6311179;22;20689;-80
2023/10/10 14:42:54;;;;;;;16.90;8.30;;;;;;;;;;6311599;22;20007;-80
2023/10/10 14:45:24;;;;;;;10.80;7.18;;;;;;;;;;6311169;22;20026;-80
2023/10/10 14:47:51;;;;;;;12.23;7.82;;;;;;;;;;6311803;22;20026;-80
2023/10/10 14:50:23;;;;;;;13.10;7.47;;;;;;;;;;6311061;22;20050;-80
2023/10/10 14:52:50;;;;;;;11.13;7.40;;;;;;;;;;6283369;22;20019;-80
2023/10/10 14:55:25;;;;;;;11.10;7.10;;;;;;;;;;6280594;22;20015;-83
2023/10/10 14:57:55;;;;;;;14.35;7.28;;;;;;;;;;6280544;22;20011;-85
2023/10/10 15:00:30;;;;;;;12.70;6.80;;;;;;;;;;6275562;22;20064;-82
2023/10/10 15:02:56;;;;;;;10.63;6.72;;;;;;;;;;6281419;22;20019;-81
2023/10/10 15:05:26;;;;;;;11.57;7.55;;;;;;;;;;6285215;22;20015;-81
2023/10/10 15:07:52;;;;;;;8.70;6.10;;;;;;;;;;6285849;22;20038;-81
2023/10/10 15:10:25;;;;;;;11.77;6.93;;;;;;;;;;6314093;22;20015;-81
2023/10/10 15:12:53;;;;;;;13.68;7.05;;;;;;;;;;6312747;22;20443;-82
2023/10/10 15:15:19;;;;;;;10.25;6.18;;;;;;;;;;6287532;22;20027;-82
2023/10/10 15:17:45;;;;;;;9.60;5.88;;;;;;;;;;6314676;22;20011;-82
2023/10/10 15:20:12;;;;;;;10.27;6.05;;;;;;;;;;6310066;22;20115;-82
2023/10/10 15:22:41;;;;;;;12.32;6.30;;;;;;;;;;6313141;22;20046;-82
2023/10/10 15:25:10;;;;;;;10.63;7.25;;;;;;;;;;6286664;22;20011;-82
2023/10/10 15:27:40;;;;;;;9.02;5.40;;;;;;;;;;6313789;22;20026;-82
2023/10/10 15:30:08;;;;;;;12.73;7.07;;;;;;;;;;6312274;22;20408;-82
2023/10/10 15:32:43;;;;;;;8.68;5.80;;;;;;;;;;6313210;22;20078;-82
2023/10/10 15:35:09;;;;;;;9.38;6.32;;;;;;;;;;6288341;22;20076;-82
2023/10/10 15:37:42;;;;;;;11.10;6.75;;;;;;;;;;6286653;22;20018;-82
2023/10/10 15:40:09;;;;;;;14.20;6.25;;;;;;;;;;6284875;22;20012;-83
2023/10/10 15:42:35;;;;;;;10.65;6.25;;;;;;;;;;6284287;22;20011;-82
2023/10/10 15:45:04;;;;;;;8.77;6.38;;;;;;;;;;6312904;22;20007;-82
2023/10/10 15:47:31;;;;;;;10.02;5.75;;;;;;;;;;6313546;22;20111;-82
2023/10/10 15:50:00;;;;;;;11.90;6.82;;;;;;;;;;6284800;22;20021;-82
2023/10/10 15:52:28;;;;;;;10.90;5.65;;;;;;;;;;6281723;22;20047;-82
2023/10/10 15:54:54;;;;;;;11.23;6.50;;;;;;;;;;6311667;22;20385;-81
2023/10/10 15:57:26;;;;;;;10.07;6.20;;;;;;;;;;6310628;22;20015;-82
2023/10/10 15:59:52;;;;;;;9.23;6.40;;;;;;;;;;6311614;22;20019;-81
2023/10/10 16:02:18;;;;;;;9.70;5.25;;;;;;;;;;6310773;22;20045;-82
2023/10/10 16:04:44;;;;;;;11.30;6.60;;;;;;;;;;6281393;22;20472;-79
2023/10/10 16:07:11;;;;;;;9.18;6.35;;;;;;;;;;6309672;22;20412;-81
2023/10/10 16:09:37;;;;;;;10.73;6.20;;;;;;;;;;6281705;22;20015;-80
2023/10/10 16:12:07;;;;;;;12.40;6.70;;;;;;;;;;6256044;22;20019;-80
2023/10/10 16:14:36;;;;;;;9.43;6.00;;;;;;;;;;6284211;22;20095;-80
2023/10/10 16:17:02;;;;;;;9.80;6.55;;;;;;;;;;6283077;22;20492;-80
2023/10/10 16:19:34;;;;;;;13.20;7.22;;;;;;;;;;6283502;22;20085;-80
2023/10/10 16:22:01;;;;;;;11.82;6.78;;;;;;;;;;6283755;22;20467;-81
2023/10/10 16:24:27;;;;;;;14.38;7.35;;;;;;;;;;6312409;22;20018;-80
2023/10/10 16:27:01;;;;;;;10.40;6.65;;;;;;;;;;6312748;22;20367;-80
2023/10/10 16:29:32;;;;;;;12.82;7.70;;;;;;;;;;6312442;22;20375;-80
2023/10/10 16:31:59;;;;;;;9.05;6.43;;;;;;;;;;6311130;22;20091;-81
2023/10/10 16:34:26;;;;;;;9.73;6.05;;;;;;;;;;6310751;22;20019;-79
2023/10/10 16:36:52;;;;;;;12.65;6.78;;;;;;;;;;6306445;22;20336;-79
2023/10/10 16:39:18;;;;;;;12.07;6.72;;;;;;;;;;6306450;22;20011;-79
2023/10/10 16:41:47;;;;;;;10.25;6.63;;;;;;;;;;6307757;22;20314;-79
2023/10/10 16:44:14;;;;;;;10.10;6.70;;;;;;;;;;6307839;22;20377;-79
2023/10/10 16:46:40;;;;;;;9.82;6.45;;;;;;;;;;6309239;22;20019;-79
2023/10/10 16:49:06;;;;;;;11.90;6.75;;;;;;;;;;6279464;22;20086;-79
2023/10/10 16:51:32;;;;;;;12.48;6.78;;;;;;;;;;6280436;22;20019;-79
2023/10/10 16:53:59;;;;;;;9.93;6.85;;;;;;;;;;6308197;22;20014;-81
2023/10/10 16:56:26;;;;;;;11.80;6.97;;;;;;;;;;6314055;22;20018;-79
2023/10/10 16:58:52;;;;;;;14.68;6.88;;;;;;;;;;6304932;22;20012;-79
2023/10/10 17:01:20;;;;;;;14.75;6.50;;;;;;;;;;6279360;22;20022;-79
2023/10/10 17:03:53;;;;;;;9.85;6.82;;;;;;;;;;6308122;22;20011;-79
2023/10/10 17:06:23;;;;;;;11.70;6.32;;;;;;;;;;6308139;22;20042;-79
2023/10/10 17:08:52;;;;;;;10.95;6.65;;;;;;;;;;6280930;22;20027;-79
2023/10/10 17:11:19;;;;;;;10.73;6.57;;;;;;;;;;6280847;22;20022;-79
2023/10/10 17:13:45;;;;;;;9.07;5.63;;;;;;;;;;6281370;22;20019;-79
2023/10/10 17:16:12;;;;;;;9.50;6.60;;;;;;;;;;6254150;22;20050;-79
2023/10/10 17:18:39;;;;;;;11.18;6.93;;;;;;;;;;6279877;22;20015;-79
2023/10/10 17:21:05;;;;;;;10.68;7.43;;;;;;;;;;6307495;22;20015;-79
2023/10/10 17:23:31;;;;;;;10.80;7.82;;;;;;;;;;6279081;22;20340;-79
2023/10/10 17:25:57;;;;;;;12.18;7.40;;;;;;;;;;6279935;22;20057;-79
2023/10/10 17:28:26;;;;;;;13.18;7.80;;;;;;;;;;6307265;22;20055;-79
2023/10/10 17:30:54;;;;;;;10.45;6.57;;;;;;;;;;6308852;22;20078;-79
2023/10/10 17:33:20;;;;;;;12.55;7.20;;;;;;;;;;6306877;22;20027;-79
2023/10/10 17:35:46;;;;;;;12.45;7.50;;;;;;;;;;6282224;22;20019;-79
2023/10/10 17:38:12;;;;;;;10.98;7.28;;;;;;;;;;6279597;22;20045;-79